Time,TemperatureF,DewpointF,PressureIn,WindDirection,WindDirectionDegrees,WindSpeedMPH,WindSpeedGustMPH,Humidity,HourlyPrecipIn,Conditions,Clouds,dailyrainin,SoftwareType,DateUTC
2013-03-13 00:00:00,9.2,5.6,30.33,NNE,24,0.0,0.0,85,0.00,,,0.00,Wunderground v.1.15,2013-03-13 05:00:00,
2013-03-13 00:10:00,8.9,5.3,30.33,NNE,24,0.0,0.0,85,0.00,,,0.00,Wunderground v.1.15,2013-03-13 05:10:00,
2013-03-13 00:15:00,8.9,5.3,30.33,NNE,24,0.0,0.0,85,0.00,,,0.00,Wunderground v.1.15,2013-03-13 05:15:00,
2013-03-13 00:20:00,8.8,5.2,30.32,NNE,24,0.0,0.0,85,0.00,,,0.00,Wunderground v.1.15,2013-03-13 05:20:00,
2013-03-13 00:25:00,8.8,5.5,30.33,NNE,24,0.0,0.0,86,0.00,,,0.00,Wunderground v.1.15,2013-03-13 05:25:00,
2013-03-13 00:30:00,8.7,5.1,30.32,NNE,24,0.0,0.0,85,0.00,,,0.00,Wunderground v.1.15,2013-03-13 05:30:00,
2013-03-13 00:35:00,8.5,4.9,30.33,NNE,24,0.0,0.0,85,0.00,,,0.00,Wunderground v.1.15,2013-03-13 05:35:00,
2013-03-13 09:50:00,16.1,11.6,30.28,SSE,150,5.0,8.0,82,0.00,,,0.00,Wunderground v.1.15,2013-03-13 14:50:00,
2013-03-13 09:55:00,17.0,12.5,30.29,SSE,153,5.0,8.0,82,0.00,,,0.00,Wunderground v.1.15,2013-03-13 14:55:00,
2013-03-13 10:00:00,17.7,12.9,30.28,SSE,159,4.0,5.0,81,0.00,,,0.00,Wunderground v.1.15,2013-03-13 15:00:00,
2013-03-13 10:10:00,17.5,12.7,30.28,South,178,6.0,6.0,81,0.00,,,0.00,Wunderground v.1.15,2013-03-13 15:10:00,
2013-03-13 10:15:00,18.2,13.3,30.28,SSE,153,5.0,7.0,81,0.00,,,0.00,Wunderground v.1.15,2013-03-13 15:15:00,
2013-03-13 10:25:00,19.3,14.4,30.28,South,173,5.0,5.0,81,0.00,,,0.00,Wunderground v.1.15,2013-03-13 15:25:00,
2013-03-13 10:30:00,19.7,14.8,30.28,SSE,150,5.0,5.0,81,0.00,,,0.00,Wunderground v.1.15,2013-03-13 15:30:00,
2013-03-13 10:35:00,19.7,14.2,30.28,SSE,167,5.0,7.0,79,0.00,,,0.00,Wunderground v.1.15,2013-03-13 15:35:00,
2013-03-13 10:40:00,19.9,14.7,30.28,SSE,165,5.0,10.0,80,0.00,,,0.00,Wunderground v.1.15,2013-03-13 15:40:00,
2013-03-13 10:45:00,20.3,15.1,30.28,South,191,5.0,10.0,80,0.00,,,0.00,Wunderground v.1.15,2013-03-13 15:45:00,
2013-03-13 10:50:00,20.7,15.5,30.27,SSE,161,6.0,6.0,80,0.00,,,0.00,Wunderground v.1.15,2013-03-13 15:50:00,
2013-03-13 10:55:00,21.2,16.0,30.27,SE,138,6.0,6.0,80,0.00,,,0.00,Wunderground v.1.15,2013-03-13 15:55:00,
2013-03-13 11:00:00,21.6,16.1,30.27,SSE,153,5.0,5.0,79,0.00,,,0.00,Wunderground v.1.15,2013-03-13 16:00:00,
2013-03-13 11:10:00,22.5,17.0,30.27,SSE,159,4.0,9.0,79,0.00,,,0.00,Wunderground v.1.15,2013-03-13 16:10:00,
2013-03-13 11:15:00,23.1,17.3,30.27,SSE,155,5.0,9.0,78,0.00,,,0.00,Wunderground v.1.15,2013-03-13 16:15:00,
2013-03-13 11:20:00,23.5,17.3,30.27,SSE,160,5.0,5.0,77,0.00,,,0.00,Wunderground v.1.15,2013-03-13 16:20:00,
2013-03-13 11:25:00,23.8,17.0,30.26,SE,146,5.0,5.0,75,0.00,,,0.00,Wunderground v.1.15,2013-03-13 16:25:00,
2013-03-13 11:30:00,24.3,17.5,30.26,SSE,150,4.0,7.0,75,0.00,,,0.00,Wunderground v.1.15,2013-03-13 16:30:00,
2013-03-13 11:35:00,24.6,17.5,30.26,SSE,159,4.0,8.0,74,0.00,,,0.00,Wunderground v.1.15,2013-03-13 16:35:00,
2013-03-13 11:40:00,24.9,17.8,30.25,SSE,157,5.0,9.0,74,0.00,,,0.00,Wunderground v.1.15,2013-03-13 16:40:00,
2013-03-13 11:50:00,25.6,18.1,30.25,SE,144,6.0,12.0,73,0.00,,,0.00,Wunderground v.1.15,2013-03-13 16:50:00,
2013-03-13 11:55:00,26.1,18.6,30.25,SE,142,6.0,13.0,73,0.00,,,0.00,Wunderground v.1.15,2013-03-13 16:55:00,
2013-03-13 12:00:00,26.1,18.3,30.24,SSE,156,7.0,7.0,72,0.00,,,0.00,Wunderground v.1.15,2013-03-13 17:00:00,
2013-03-13 12:10:00,27.1,18.9,30.23,SSE,149,8.0,9.0,71,0.00,,,0.00,Wunderground v.1.15,2013-03-13 17:10:00,
2013-03-13 12:20:00,28.2,19.3,30.23,South,178,7.0,11.0,69,0.00,,,0.00,Wunderground v.1.15,2013-03-13 17:20:00,
2013-03-13 12:25:00,28.3,19.1,30.23,SSE,168,7.0,11.0,68,0.00,,,0.00,Wunderground v.1.15,2013-03-13 17:25:00,
2013-03-13 12:30:00,29.0,20.1,30.23,SSE,152,7.0,7.0,69,0.00,,,0.00,Wunderground v.1.15,2013-03-13 17:30:00,
2013-03-13 12:40:00,30.2,20.2,30.23,SE,137,8.0,8.0,66,0.00,,,0.00,Wunderground v.1.15,2013-03-13 17:40:00,
2013-03-13 12:45:00,30.8,20.4,30.22,SSE,161,8.0,8.0,65,0.00,,,0.00,Wunderground v.1.15,2013-03-13 17:45:00,
2013-03-13 12:55:00,31.7,20.5,30.22,SE,144,8.0,16.0,63,0.00,,,0.00,Wunderground v.1.15,2013-03-13 17:55:00,
2013-03-13 13:00:00,32.8,20.8,30.21,SSE,150,7.0,11.0,61,0.00,,,0.00,Wunderground v.1.15,2013-03-13 18:00:00,
2013-03-13 13:10:00,33.6,18.7,30.21,SSE,155,9.0,12.0,54,0.00,,,0.00,Wunderground v.1.15,2013-03-13 18:10:00,
2013-03-13 13:15:00,34.4,19.9,30.20,SSE,147,7.0,12.0,55,0.00,,,0.00,Wunderground v.1.15,2013-03-13 18:15:00,
2013-03-13 13:25:00,35.4,20.4,30.20,SSE,168,6.0,7.0,54,0.00,,,0.00,Wunderground v.1.15,2013-03-13 18:25:00,
2013-03-13 13:30:00,36.0,19.6,30.20,SSW,196,5.0,9.0,51,0.00,,,0.00,Wunderground v.1.15,2013-03-13 18:30:00,
2013-03-13 13:35:00,36.1,19.2,30.20,SE,136,6.0,13.0,50,0.00,,,0.00,Wunderground v.1.15,2013-03-13 18:35:00,
2013-03-13 13:40:00,36.0,19.1,30.20,SE,144,7.0,11.0,50,0.00,,,0.00,Wunderground v.1.15,2013-03-13 18:40:00,
2013-03-13 13:45:00,36.2,19.3,30.19,SE,144,8.0,11.0,50,0.00,,,0.00,Wunderground v.1.15,2013-03-13 18:45:00,
2013-03-13 13:50:00,36.2,18.9,30.18,SW,217,8.0,8.0,49,0.00,,,0.00,Wunderground v.1.15,2013-03-13 18:50:00,
2013-03-13 14:00:00,36.5,19.1,30.17,SSW,210,10.0,10.0,49,0.00,,,0.00,Wunderground v.1.15,2013-03-13 19:00:00,
2013-03-13 14:10:00,37.3,20.3,30.17,SSE,152,9.0,9.0,50,0.00,,,0.00,Wunderground v.1.15,2013-03-13 19:10:00,
2013-03-13 14:15:00,37.8,19.8,30.16,South,169,8.0,11.0,48,0.00,,,0.00,Wunderground v.1.15,2013-03-13 19:15:00,
2013-03-13 14:20:00,38.0,20.0,30.16,SSE,148,8.0,11.0,48,0.00,,,0.00,Wunderground v.1.15,2013-03-13 19:20:00,
2013-03-13 14:25:00,38.1,20.1,30.15,South,174,8.0,11.0,48,0.00,,,0.00,Wunderground v.1.15,2013-03-13 19:25:00,
2013-03-13 14:35:00,38.5,20.0,30.15,SSE,148,8.0,12.0,47,0.00,,,0.00,Wunderground v.1.15,2013-03-13 19:35:00,
2013-03-13 14:40:00,38.6,20.1,30.15,SSE,156,8.0,10.0,47,0.00,,,0.00,Wunderground v.1.15,2013-03-13 19:40:00,
2013-03-13 14:45:00,38.6,20.1,30.15,SSE,162,7.0,10.0,47,0.00,,,0.00,Wunderground v.1.15,2013-03-13 19:45:00,
2013-03-13 14:50:00,38.7,20.7,30.14,South,175,7.0,7.0,48,0.00,,,0.00,Wunderground v.1.15,2013-03-13 19:50:00,
2013-03-13 14:55:00,38.9,20.9,30.14,SSE,164,7.0,7.0,48,0.00,,,0.00,Wunderground v.1.15,2013-03-13 19:55:00,
2013-03-13 15:00:00,39.1,20.5,30.14,SSE,160,8.0,13.0,47,0.00,,,0.00,Wunderground v.1.15,2013-03-13 20:00:00,
2013-03-13 15:10:00,39.2,20.6,30.13,SSE,149,8.0,16.0,47,0.00,,,0.00,Wunderground v.1.15,2013-03-13 20:10:00,
2013-03-13 15:15:00,39.1,21.0,30.13,SW,233,9.0,16.0,48,0.00,,,0.00,Wunderground v.1.15,2013-03-13 20:15:00,
2013-03-13 15:20:00,38.9,20.9,30.12,South,169,9.0,10.0,48,0.00,,,0.00,Wunderground v.1.15,2013-03-13 20:20:00,
2013-03-13 15:25:00,38.9,20.9,30.12,South,171,8.0,12.0,48,0.00,,,0.00,Wunderground v.1.15,2013-03-13 20:25:00,
2013-03-13 15:35:00,39.0,21.4,30.12,SSW,192,7.0,7.0,49,0.00,,,0.00,Wunderground v.1.15,2013-03-13 20:35:00,
2013-03-13 15:40:00,39.0,21.9,30.11,SSW,194,8.0,8.0,50,0.00,,,0.00,Wunderground v.1.15,2013-03-13 20:40:00,
2013-03-13 15:50:00,39.0,22.4,30.10,SSE,161,7.0,7.0,51,0.00,,,0.00,Wunderground v.1.15,2013-03-13 20:50:00,
2013-03-13 15:55:00,39.4,23.2,30.10,South,174,7.0,9.0,52,0.00,,,0.00,Wunderground v.1.15,2013-03-13 20:55:00,
2013-03-13 16:00:00,39.7,23.5,30.10,SSW,194,7.0,7.0,52,0.00,,,0.00,Wunderground v.1.15,2013-03-13 21:00:00,
2013-03-13 16:10:00,39.5,23.8,30.10,SSE,161,7.0,8.0,53,0.00,,,0.00,Wunderground v.1.15,2013-03-13 21:10:00,
2013-03-13 16:15:00,39.5,23.8,30.09,SSE,163,8.0,8.0,53,0.00,,,0.00,Wunderground v.1.15,2013-03-13 21:15:00,
2013-03-13 16:20:00,39.4,24.1,30.09,South,187,8.0,8.0,54,0.00,,,0.00,Wunderground v.1.15,2013-03-13 21:20:00,
2013-03-13 16:25:00,39.8,24.5,30.10,South,173,7.0,13.0,54,0.00,,,0.00,Wunderground v.1.15,2013-03-13 21:25:00,
2013-03-13 16:35:00,38.6,24.7,30.10,SSE,161,9.0,9.0,57,0.00,,,0.00,Wunderground v.1.15,2013-03-13 21:35:00,
2013-03-13 16:40:00,38.3,24.8,30.10,South,184,8.0,8.0,58,0.00,,,0.00,Wunderground v.1.15,2013-03-13 21:40:00,
2013-03-13 16:45:00,38.0,24.9,30.10,SSE,164,6.0,8.0,59,0.00,,,0.00,Wunderground v.1.15,2013-03-13 21:45:00,
2013-03-13 16:50:00,38.0,24.9,30.09,South,177,6.0,6.0,59,0.00,,,0.00,Wunderground v.1.15,2013-03-13 21:50:00,
2013-03-13 17:00:00,38.3,25.6,30.10,SSE,156,7.0,7.0,60,0.00,,,0.00,Wunderground v.1.15,2013-03-13 22:00:00,
2013-03-13 17:10:00,38.8,26.1,30.10,South,169,7.0,7.0,60,0.00,,,0.00,Wunderground v.1.15,2013-03-13 22:10:00,
2013-03-13 17:20:00,39.4,26.2,30.09,SSE,154,6.0,6.0,59,0.00,,,0.00,Wunderground v.1.15,2013-03-13 22:20:00,
2013-03-13 17:25:00,39.6,26.0,30.09,South,178,7.0,7.0,58,0.00,,,0.00,Wunderground v.1.15,2013-03-13 22:25:00,
2013-03-13 17:30:00,39.9,26.7,30.09,SW,215,6.0,6.0,59,0.00,,,0.00,Wunderground v.1.15,2013-03-13 22:30:00,
2013-03-13 17:35:00,40.0,26.4,30.09,South,173,6.0,6.0,58,0.00,,,0.00,Wunderground v.1.15,2013-03-13 22:35:00,
2013-03-13 17:40:00,39.7,26.1,30.09,South,169,7.0,7.0,58,0.00,,,0.00,Wunderground v.1.15,2013-03-13 22:40:00,
2013-03-13 17:45:00,39.7,26.5,30.08,SSE,168,7.0,7.0,59,0.00,,,0.00,Wunderground v.1.15,2013-03-13 22:45:00,
2013-03-13 17:55:00,39.6,26.8,30.08,South,176,8.0,8.0,60,0.00,,,0.00,Wunderground v.1.15,2013-03-13 22:55:00,
2013-03-13 18:00:00,39.7,26.9,30.08,SSE,159,7.0,7.0,60,0.00,,,0.00,Wunderground v.1.15,2013-03-13 23:00:00,
2013-03-13 18:10:00,39.4,27.1,30.07,SSE,159,7.0,7.0,61,0.00,,,0.00,Wunderground v.1.15,2013-03-13 23:10:00,
2013-03-13 18:20:00,39.0,27.5,30.06,SE,141,7.0,7.0,63,0.00,,,0.00,Wunderground v.1.15,2013-03-13 23:20:00,
2013-03-13 18:25:00,38.9,27.4,30.06,SSE,157,7.0,13.0,63,0.00,,,0.00,Wunderground v.1.15,2013-03-13 23:25:00,
2013-03-13 18:30:00,38.6,27.5,30.06,SSE,164,8.0,8.0,64,0.00,,,0.00,Wunderground v.1.15,2013-03-13 23:30:00,
2013-03-13 18:35:00,38.0,27.3,30.06,SSE,158,8.0,10.0,65,0.00,,,0.00,Wunderground v.1.15,2013-03-13 23:35:00,